createdAt,value
2016-09-03T00:00:30.917Z,1032.55
2016-09-03T00:01:30.913Z,1032.51
2016-09-03T00:02:30.912Z,1032.51
2016-09-03T00:03:30.914Z,1032.52
2016-09-03T00:04:30.906Z,1032.5
2016-09-03T00:05:30.903Z,1032.47
2016-09-03T00:06:30.910Z,1032.42
2016-09-03T00:07:30.901Z,1032.39
2016-09-03T00:08:30.895Z,1032.43
2016-09-03T00:09:30.892Z,1032.36
2016-09-03T00:10:30.896Z,1032.37
2016-09-03T00:11:30.887Z,1032.33
2016-09-03T00:12:30.890Z,1032.32
2016-09-03T00:13:30.882Z,1032.32
2016-09-03T00:14:30.880Z,1032.33
2016-09-03T00:15:30.877Z,1032.35
2016-09-03T00:16:30.872Z,1032.31
2016-09-03T00:17:30.870Z,1032.34
2016-09-03T00:18:31.168Z,1032.33
2016-09-03T00:19:30.864Z,1032.3
2016-09-03T00:20:30.862Z,1032.3
2016-09-03T00:21:30.865Z,1032.28
2016-09-03T00:22:30.856Z,1032.27
2016-09-03T00:23:30.854Z,1032.28
2016-09-03T00:24:30.851Z,1032.26
2016-09-03T00:25:30.848Z,1032.27
2016-09-03T00:26:30.852Z,1032.28
2016-09-03T00:27:30.842Z,1032.31
2016-09-03T00:28:30.840Z,1032.29
2016-09-03T00:29:31.140Z,1032.32
2016-09-03T00:30:30.842Z,1032.31
2016-09-03T00:31:30.832Z,1032.28
2016-09-03T00:32:30.830Z,1032.28
2016-09-03T00:33:30.833Z,1032.32
2016-09-03T00:34:30.823Z,1032.3
2016-09-03T00:35:30.821Z,1032.35
2016-09-03T00:36:30.818Z,1032.34
2016-09-03T00:37:30.822Z,1032.4
2016-09-03T00:38:30.813Z,1032.4
2016-09-03T00:39:30.810Z,1032.34
2016-09-03T00:40:30.808Z,1032.35
2016-09-03T00:41:30.806Z,1032.35
2016-09-03T00:42:30.803Z,1032.3
2016-09-03T00:43:30.801Z,1032.31
2016-09-03T00:44:30.798Z,1032.32
2016-09-03T00:45:30.795Z,1032.27
2016-09-03T00:46:30.792Z,1032.27
2016-09-03T00:47:30.792Z,1032.27
2016-09-03T00:48:30.794Z,1032.28
2016-09-03T00:49:30.786Z,1032.25
2016-09-03T00:50:30.788Z,1032.2
2016-09-03T00:51:30.780Z,1032.23
2016-09-03T00:52:30.776Z,1032.21
2016-09-03T00:53:30.774Z,1032.17
2016-09-03T00:54:30.772Z,1032.16
2016-09-03T00:55:30.775Z,1032.13
2016-09-03T00:56:30.772Z,1032.09
2016-09-03T00:57:30.764Z,1032.14
2016-09-03T00:58:30.761Z,1032.04
2016-09-03T00:59:30.761Z,1031.99
2016-09-03T01:00:30.762Z,1031.99
2016-09-03T01:01:30.753Z,1031.98
2016-09-03T01:02:30.757Z,1031.91
2016-09-03T01:03:30.749Z,1031.87
2016-09-03T01:04:30.744Z,1031.85
2016-09-03T01:05:30.744Z,1031.87
2016-09-03T01:06:30.746Z,1031.83
2016-09-03T01:07:30.735Z,1031.82
2016-09-03T01:08:30.734Z,1031.82
2016-09-03T01:09:30.732Z,1031.77
2016-09-03T01:10:31.133Z,1031.75
2016-09-03T01:11:30.727Z,1031.75
2016-09-03T01:12:30.723Z,1031.73
2016-09-03T01:13:30.798Z,1031.75
2016-09-03T01:14:30.718Z,1031.76
2016-09-03T01:15:30.720Z,1031.75
2016-09-03T01:16:30.719Z,1031.75
2016-09-03T01:17:30.712Z,1031.74
2016-09-03T01:18:30.713Z,1031.74
2016-09-03T01:19:30.705Z,1031.71
2016-09-03T01:20:30.705Z,1031.67
2016-09-03T01:21:30.702Z,1031.64
2016-09-03T01:22:30.697Z,1031.65
2016-09-03T01:23:30.694Z,1031.62
2016-09-03T01:24:30.698Z,1031.65
2016-09-03T01:25:30.696Z,1031.65
2016-09-03T01:26:30.697Z,1031.63
2016-09-03T01:27:30.686Z,1031.59
2016-09-03T01:28:30.688Z,1031.58
2016-09-03T01:29:30.677Z,1031.54
2016-09-03T01:30:30.682Z,1031.53
2016-09-03T01:31:30.673Z,1031.51
2016-09-03T01:32:30.676Z,1031.48
2016-09-03T01:33:30.668Z,1031.46
2016-09-03T01:34:30.665Z,1031.48
2016-09-03T01:35:30.662Z,1031.49
2016-09-03T01:36:30.661Z,1031.54
2016-09-03T01:37:30.663Z,1031.57
2016-09-03T01:38:30.660Z,1031.63
2016-09-03T01:39:30.658Z,1031.62
2016-09-03T01:40:30.649Z,1031.62
2016-09-03T01:41:30.647Z,1031.64
2016-09-03T01:42:30.644Z,1031.64
2016-09-03T01:43:30.647Z,1031.62
2016-09-03T01:44:30.638Z,1031.63
2016-09-03T01:45:30.641Z,1031.67
2016-09-03T01:46:30.633Z,1031.72
2016-09-03T01:47:30.630Z,1031.75
2016-09-03T01:48:30.627Z,1031.8
2016-09-03T01:49:30.625Z,1031.81
2016-09-03T01:50:30.624Z,1031.8
2016-09-03T01:51:30.618Z,1031.8
2016-09-03T01:52:30.616Z,1031.79
2016-09-03T01:53:30.619Z,1031.76
2016-09-03T01:54:30.611Z,1031.76
2016-09-03T01:55:30.615Z,1031.75
2016-09-03T01:56:30.607Z,1031.72
2016-09-03T01:57:30.603Z,1031.72
2016-09-03T01:58:30.600Z,1031.67
2016-09-03T01:59:30.603Z,1031.64
2016-09-03T02:00:30.595Z,1031.61
2016-09-03T02:01:30.599Z,1031.6
2016-09-03T02:02:30.596Z,1031.53
2016-09-03T02:03:30.591Z,1031.57
2016-09-03T02:04:30.587Z,1031.51
2016-09-03T02:05:30.582Z,1031.47
2016-09-03T02:06:30.579Z,1031.5
2016-09-03T02:07:30.576Z,1031.51
2016-09-03T02:08:30.580Z,1031.55
2016-09-03T02:09:30.574Z,1031.56
2016-09-03T02:10:30.575Z,1031.55
2016-09-03T02:11:30.569Z,1031.55
2016-09-03T02:12:30.571Z,1031.52
2016-09-03T02:13:30.561Z,1031.51
2016-09-03T02:14:30.566Z,1031.49
2016-09-03T02:15:30.556Z,1031.49
2016-09-03T02:16:30.554Z,1031.46
2016-09-03T02:17:30.552Z,1031.44
2016-09-03T02:18:30.549Z,1031.47
2016-09-03T02:19:30.553Z,1031.42
2016-09-03T02:20:30.546Z,1031.39
2016-09-03T02:21:30.543Z,1031.42
2016-09-03T02:22:30.540Z,1031.38
2016-09-03T02:23:30.544Z,1031.38
2016-09-03T02:24:30.544Z,1031.41
2016-09-03T02:25:30.533Z,1031.46
2016-09-03T02:26:30.529Z,1031.54
2016-09-03T02:27:30.527Z,1031.59
2016-09-03T02:28:30.829Z,1031.64
2016-09-03T02:29:30.522Z,1031.71
2016-09-03T02:30:30.523Z,1031.71
2016-09-03T02:31:30.526Z,1031.7
2016-09-03T02:32:30.514Z,1031.7
2016-09-03T02:33:30.514Z,1031.69
2016-09-03T02:34:30.510Z,1031.64
2016-09-03T02:35:30.507Z,1031.65
2016-09-03T02:36:30.504Z,1031.63
2016-09-03T02:37:30.502Z,1031.63
2016-09-03T02:38:30.499Z,1031.7
2016-09-03T02:39:30.502Z,1031.66
2016-09-03T02:40:30.495Z,1031.71
2016-09-03T02:41:30.495Z,1031.7
2016-09-03T02:42:30.489Z,1031.75
2016-09-03T02:43:30.487Z,1031.8
2016-09-03T02:44:30.485Z,1031.84
2016-09-03T02:45:30.487Z,1031.87
2016-09-03T02:46:30.480Z,1031.92
2016-09-03T02:47:30.483Z,1031.89
2016-09-03T02:48:30.475Z,1031.88
2016-09-03T02:49:30.474Z,1031.83
2016-09-03T02:50:30.471Z,1031.78
2016-09-03T02:51:30.468Z,1031.77
2016-09-03T02:52:31.717Z,1031.77
2016-09-03T02:53:30.475Z,1031.74
2016-09-03T02:54:30.460Z,1031.66
2016-09-03T02:55:30.459Z,1031.67
2016-09-03T02:56:30.462Z,1031.66
2016-09-03T02:57:30.909Z,1031.69
2016-09-03T02:58:30.452Z,1031.75
2016-09-03T02:59:30.449Z,1031.76
2016-09-03T03:00:30.448Z,1031.74
2016-09-03T03:01:30.649Z,1031.69
2016-09-03T03:02:30.443Z,1031.73
2016-09-03T03:03:30.444Z,1031.74
2016-09-03T03:04:30.434Z,1031.79
2016-09-03T03:05:30.433Z,1031.74
2016-09-03T03:06:30.433Z,1031.71
2016-09-03T03:07:30.431Z,1031.7
2016-09-03T03:08:30.437Z,1031.68
2016-09-03T03:09:30.424Z,1031.68
2016-09-03T03:10:30.421Z,1031.68
2016-09-03T03:11:30.420Z,1031.69
2016-09-03T03:12:30.415Z,1031.7
2016-09-03T03:13:30.421Z,1031.62
2016-09-03T03:14:30.412Z,1031.58
2016-09-03T03:15:30.411Z,1031.58
2016-09-03T03:16:30.410Z,1031.53
2016-09-03T03:17:30.410Z,1031.55
2016-09-03T03:18:30.405Z,1031.49
2016-09-03T03:19:30.400Z,1031.49
2016-09-03T03:20:30.397Z,1031.49
2016-09-03T03:21:30.401Z,1031.51
2016-09-03T03:22:30.394Z,1031.45
2016-09-03T03:23:30.390Z,1031.4
2016-09-03T03:24:30.390Z,1031.42
2016-09-03T03:25:30.385Z,1031.36
2016-09-03T03:26:30.383Z,1031.34
2016-09-03T03:27:30.387Z,1031.38
2016-09-03T03:28:30.380Z,1031.38
2016-09-03T03:29:30.379Z,1031.4
2016-09-03T03:30:30.378Z,1031.42
2016-09-03T03:31:30.378Z,1031.47
2016-09-03T03:32:30.369Z,1031.45
2016-09-03T03:33:30.372Z,1031.42
2016-09-03T03:34:30.366Z,1031.45
2016-09-03T03:35:30.362Z,1031.38
2016-09-03T03:36:30.361Z,1031.36
2016-09-03T03:37:30.357Z,1031.34
2016-09-03T03:38:30.356Z,1031.39
2016-09-03T03:39:30.352Z,1031.4
2016-09-03T03:40:30.350Z,1031.45
2016-09-03T03:41:30.348Z,1031.52
2016-09-03T03:42:30.351Z,1031.56
2016-09-03T03:43:30.343Z,1031.66
2016-09-03T03:44:30.340Z,1031.67
2016-09-03T03:45:30.340Z,1031.7
2016-09-03T03:46:30.336Z,1031.69
2016-09-03T03:47:30.336Z,1031.7
2016-09-03T03:48:30.330Z,1031.67
2016-09-03T03:49:30.860Z,1031.67
2016-09-03T03:50:30.332Z,1031.67
2016-09-03T03:51:30.325Z,1031.62
2016-09-03T03:52:30.335Z,1031.6
2016-09-03T03:53:30.976Z,1031.57
2016-09-03T03:54:31.308Z,1031.55
2016-09-03T03:55:30.322Z,1031.55
2016-09-03T03:56:30.314Z,1031.57
2016-09-03T03:57:30.311Z,1031.57
2016-09-03T03:58:30.314Z,1031.54
2016-09-03T03:59:30.308Z,1031.57
2016-09-03T04:00:30.481Z,1031.53
2016-09-03T04:01:30.304Z,1031.57
2016-09-03T04:02:30.298Z,1031.58
2016-09-03T04:03:30.296Z,1031.58
2016-09-03T04:04:30.301Z,1031.59
2016-09-03T04:05:30.295Z,1031.6
2016-09-03T04:06:30.298Z,1031.61
2016-09-03T04:07:30.286Z,1031.62
2016-09-03T04:08:30.287Z,1031.61
2016-09-03T04:09:30.281Z,1031.58
2016-09-03T04:10:30.279Z,1031.55
2016-09-03T04:11:30.532Z,1031.49
2016-09-03T04:12:30.275Z,1031.53
2016-09-03T04:13:30.271Z,1031.53
2016-09-03T04:14:30.270Z,1031.48
2016-09-03T04:15:30.417Z,1031.46
2016-09-03T04:16:30.265Z,1031.43
2016-09-03T04:17:30.269Z,1031.41
2016-09-03T04:18:30.260Z,1031.41
2016-09-03T04:19:30.259Z,1031.38
2016-09-03T04:20:31.105Z,1031.41
2016-09-03T04:21:30.253Z,1031.39
2016-09-03T04:22:30.256Z,1031.4
2016-09-03T04:23:30.250Z,1031.41
2016-09-03T04:24:30.250Z,1031.42
2016-09-03T04:25:30.249Z,1031.42
2016-09-03T04:26:30.241Z,1031.43
2016-09-03T04:27:30.237Z,1031.43
2016-09-03T04:28:30.234Z,1031.41
2016-09-03T04:29:30.244Z,1031.42
2016-09-03T04:30:30.230Z,1031.44
2016-09-03T04:31:30.244Z,1031.42
2016-09-03T04:32:30.225Z,1031.45
2016-09-03T04:33:30.224Z,1031.44
2016-09-03T04:34:30.227Z,1031.4
2016-09-03T04:35:30.219Z,1031.4
2016-09-03T04:36:30.215Z,1031.45
2016-09-03T04:37:30.213Z,1031.44
2016-09-03T04:38:30.211Z,1031.42
2016-09-03T04:39:30.208Z,1031.4
2016-09-03T04:40:30.206Z,1031.38
2016-09-03T04:41:30.205Z,1031.4
2016-09-03T04:42:30.208Z,1031.38
2016-09-03T04:43:30.201Z,1031.36
2016-09-03T04:44:30.197Z,1031.35
2016-09-03T04:45:30.245Z,1031.37
2016-09-03T04:46:30.190Z,1031.33
2016-09-03T04:47:30.189Z,1031.37
2016-09-03T04:48:30.189Z,1031.28
2016-09-03T04:49:30.184Z,1031.33
2016-09-03T04:50:30.190Z,1031.28
2016-09-03T04:51:30.185Z,1031.27
2016-09-03T04:52:30.183Z,1031.24
2016-09-03T04:53:30.175Z,1031.24
2016-09-03T04:54:30.177Z,1031.26
2016-09-03T04:55:30.172Z,1031.24
2016-09-03T04:56:30.175Z,1031.2
2016-09-03T04:57:30.165Z,1031.24
2016-09-03T04:58:30.169Z,1031.23
2016-09-03T04:59:30.163Z,1031.21
2016-09-03T05:00:30.158Z,1031.2
2016-09-03T05:01:30.156Z,1031.16
2016-09-03T05:02:31.890Z,1031.13
2016-09-03T05:03:30.152Z,1031.17
2016-09-03T05:04:30.150Z,1031.15
2016-09-03T05:05:30.153Z,1031.14
2016-09-03T05:06:30.147Z,1031.11
2016-09-03T05:07:30.143Z,1031.06
2016-09-03T05:08:30.363Z,1031.04
2016-09-03T05:09:30.148Z,1031.03
2016-09-03T05:10:30.138Z,1030.99
2016-09-03T05:11:30.134Z,1030.97
2016-09-03T05:12:30.132Z,1030.9
2016-09-03T05:13:30.132Z,1030.89
2016-09-03T05:14:31.239Z,1030.93
2016-09-03T05:15:30.132Z,1030.89
2016-09-03T05:16:30.125Z,1030.86
2016-09-03T05:17:30.121Z,1030.86
2016-09-03T05:18:30.120Z,1030.89
2016-09-03T05:19:30.117Z,1030.88
2016-09-03T05:20:30.116Z,1030.86
2016-09-03T05:21:30.121Z,1030.87
2016-09-03T05:22:30.113Z,1030.85
2016-09-03T05:23:30.109Z,1030.82
2016-09-03T05:24:30.110Z,1030.79
2016-09-03T05:25:30.105Z,1030.75
2016-09-03T05:26:30.111Z,1030.75
2016-09-03T05:27:30.102Z,1030.7
2016-09-03T05:28:30.101Z,1030.69
2016-09-03T05:29:30.109Z,1030.66
2016-09-03T05:30:30.097Z,1030.65
2016-09-03T05:31:30.446Z,1030.57
2016-09-03T05:32:30.099Z,1030.52
2016-09-03T05:33:30.145Z,1030.48
2016-09-03T05:34:30.089Z,1030.47
2016-09-03T05:35:30.088Z,1030.44
2016-09-03T05:36:30.087Z,1030.37
2016-09-03T05:37:30.085Z,1030.33
2016-09-03T05:38:30.083Z,1030.3
2016-09-03T05:39:30.082Z,1030.31
2016-09-03T05:40:30.087Z,1030.26
2016-09-03T05:41:30.081Z,1030.2
2016-09-03T05:42:30.084Z,1030.2
2016-09-03T05:43:30.076Z,1030.18
2016-09-03T05:44:30.076Z,1030.19
2016-09-03T05:45:30.074Z,1030.14
2016-09-03T05:46:30.079Z,1030.11
2016-09-03T05:47:30.072Z,1030.06
2016-09-03T05:48:30.070Z,1030.04
2016-09-03T05:49:30.070Z,1029.98
2016-09-03T05:50:30.069Z,1029.99
2016-09-03T05:51:30.070Z,1030
2016-09-03T05:52:30.066Z,1029.99
2016-09-03T05:53:30.066Z,1029.98
2016-09-03T05:54:30.065Z,1029.95
2016-09-03T05:55:30.065Z,1029.96
2016-09-03T05:56:30.062Z,1029.98
2016-09-03T05:57:30.064Z,1029.85
2016-09-03T05:58:30.062Z,1029.77
2016-09-03T05:59:30.066Z,1029.7
2016-09-03T06:00:30.066Z,1029.65
2016-09-03T06:01:30.066Z,1029.65
2016-09-03T06:02:30.060Z,1029.66
2016-09-03T06:03:30.065Z,1029.59
2016-09-03T06:04:30.060Z,1029.57
2016-09-03T06:05:30.058Z,1029.56
2016-09-03T06:06:30.060Z,1029.56
2016-09-03T06:07:30.058Z,1029.56
2016-09-03T06:08:30.058Z,1029.56
2016-09-03T06:09:30.057Z,1029.56
2016-09-03T06:10:30.056Z,1029.56
2016-09-03T06:11:30.057Z,1029.43
2016-09-03T06:12:30.057Z,1029.36
2016-09-03T06:13:30.058Z,1029.23
2016-09-03T06:14:30.057Z,1029.18
2016-09-03T06:15:30.057Z,1029.1
2016-09-03T06:16:30.063Z,1029.06
2016-09-03T06:17:30.065Z,1029.07
2016-09-03T06:18:30.059Z,1029.06
2016-09-03T06:19:30.059Z,1029.07
2016-09-03T06:20:31.069Z,1029.01
2016-09-03T06:22:30.061Z,1028.92
2016-09-03T06:23:30.065Z,1028.86
2016-09-03T06:24:30.064Z,1028.89
2016-09-03T06:25:30.070Z,1028.61
2016-09-03T06:26:30.067Z,1028.28
2016-09-03T06:27:30.072Z,1028.03
2016-09-03T06:28:30.069Z,1027.71
2016-09-03T06:29:30.075Z,1027.68
2016-09-03T06:30:30.073Z,1027.43
2016-09-03T06:31:30.075Z,1027.37
2016-09-03T06:32:30.073Z,1027.09
2016-09-03T06:33:30.083Z,1026.99
2016-09-03T06:34:30.804Z,1026.95
2016-09-03T06:35:30.082Z,1026.9
2016-09-03T06:36:30.091Z,1026.75
2016-09-03T06:37:30.094Z,1026.56
2016-09-03T06:38:30.093Z,1026.45
2016-09-03T06:39:30.095Z,1026.27
2016-09-03T06:40:30.098Z,1026.06
2016-09-03T06:41:30.109Z,1025.96
2016-09-03T06:42:30.108Z,1025.71
2016-09-03T06:43:30.116Z,1025.55
2016-09-03T06:44:30.118Z,1025.43
2016-09-03T06:45:30.126Z,1025.31
2016-09-03T06:47:30.132Z,1025.04
2016-09-03T06:48:30.644Z,1024.91
2016-09-03T06:49:30.195Z,1024.76
2016-09-03T06:50:30.149Z,1024.65
2016-09-03T06:51:30.157Z,1024.53
2016-09-03T06:52:30.162Z,1024.47
2016-09-03T06:53:30.171Z,1024.46
2016-09-03T06:54:30.181Z,1024.38
2016-09-03T06:55:30.184Z,1024.34
2016-09-03T06:56:30.191Z,1024.43
2016-09-03T06:58:30.205Z,1024.44
2016-09-03T06:59:30.220Z,1024.52
2016-09-03T07:00:30.223Z,1024.45
2016-09-03T07:04:30.256Z,1024.62
2016-09-03T07:05:30.264Z,1024.75
2016-09-03T07:06:30.283Z,1024.65
2016-09-03T07:07:30.281Z,1024.54
2016-09-03T07:10:30.306Z,1024.72
2016-09-03T07:11:31.534Z,1024.77
2016-09-03T07:12:30.323Z,1024.77
2016-09-03T07:13:30.337Z,1024.78
2016-09-03T07:14:30.339Z,1024.72
2016-09-03T07:15:30.351Z,1024.78
2016-09-03T07:16:30.968Z,1024.89
2016-09-03T07:17:30.371Z,1024.84
2016-09-03T07:18:30.376Z,1024.95
2016-09-03T07:19:30.385Z,1025.11
2016-09-03T07:20:30.391Z,1025.14
2016-09-03T07:21:49.600Z,1025.14
2016-09-03T07:23:30.423Z,1025.02
2016-09-03T07:24:30.427Z,1025.12
2016-09-03T07:25:30.642Z,1025.07
2016-09-03T07:26:30.442Z,1025.21
2016-09-03T07:27:30.450Z,1025.18
2016-09-03T07:28:30.462Z,1025.09
2016-09-03T07:30:30.478Z,1025.05
2016-09-03T07:31:30.485Z,1025.01
2016-09-03T07:32:30.493Z,1025.06
2016-09-03T07:33:30.508Z,1025.05
2016-09-03T07:34:30.511Z,1025.12
2016-09-03T07:35:30.525Z,1024.99
2016-09-03T07:36:30.528Z,1024.89
2016-09-03T07:37:30.542Z,1024.68
2016-09-03T07:38:30.544Z,1024.73
2016-09-03T07:39:30.745Z,1024.78
2016-09-03T07:40:30.580Z,1024.83
2016-09-03T07:41:30.573Z,1024.88
2016-09-03T07:42:30.579Z,1024.86
2016-09-03T07:43:30.589Z,1024.85
2016-09-03T07:44:30.598Z,1024.86
2016-09-03T07:45:30.607Z,1024.73
2016-09-03T07:46:30.615Z,1024.72
2016-09-03T07:47:30.625Z,1024.69
2016-09-03T07:48:30.634Z,1024.73
2016-09-03T07:49:30.645Z,1024.78
2016-09-03T07:50:31.916Z,1024.88
2016-09-03T07:51:30.661Z,1025.05
2016-09-03T07:52:30.677Z,1025.15
2016-09-03T07:53:30.692Z,1025.2
2016-09-03T07:54:30.687Z,1025.08
2016-09-03T07:55:30.697Z,1024.96
2016-09-03T07:56:30.705Z,1024.86
2016-09-03T07:57:30.715Z,1024.74
2016-09-03T07:58:30.723Z,1024.61
2016-09-03T07:59:30.734Z,1024.65
2016-09-03T08:00:30.740Z,1024.63
2016-09-03T08:01:30.749Z,1024.59
2016-09-03T08:02:30.764Z,1024.53
2016-09-03T08:03:30.768Z,1024.44
2016-09-03T08:04:30.782Z,1024.42
2016-09-03T08:06:30.795Z,1024.44
2016-09-03T08:07:30.810Z,1024.36
2016-09-03T08:08:30.813Z,1024.41
2016-09-03T08:09:30.822Z,1024.37
2016-09-03T08:10:30.837Z,1024.16
2016-09-03T08:11:30.842Z,1024.15
2016-09-03T08:12:30.859Z,1024.16
2016-09-03T08:13:31.611Z,1024.2
2016-09-03T08:14:30.874Z,1024.21
2016-09-03T08:15:31.327Z,1024.33
2016-09-03T08:16:31.488Z,1024.39
2016-09-03T08:17:30.897Z,1024.52
2016-09-03T08:18:30.909Z,1024.77
2016-09-03T08:19:30.912Z,1025.13
2016-09-03T08:20:30.922Z,1025.39
2016-09-03T08:21:30.932Z,1025.64
2016-09-03T08:22:30.945Z,1025.82
2016-09-03T08:23:30.952Z,1026.04
2016-09-03T08:24:30.956Z,1026.2
2016-09-03T08:25:30.967Z,1026.34
2016-09-03T08:26:30.979Z,1026.48
2016-09-03T08:27:30.983Z,1026.68
2016-09-03T08:28:30.997Z,1026.81
2016-09-03T08:29:30.998Z,1026.95
2016-09-03T08:30:31.014Z,1027.16
2016-09-03T08:31:31.016Z,1027.25
2016-09-03T08:32:31.024Z,1027.37
2016-09-03T08:33:31.030Z,1027.51
2016-09-03T08:34:31.043Z,1027.59
2016-09-03T08:35:31.045Z,1027.75
2016-09-03T08:36:31.055Z,1027.89
2016-09-03T08:37:31.062Z,1027.99
2016-09-03T08:38:31.071Z,1027.97
2016-09-03T08:39:31.081Z,1027.97
2016-09-03T08:40:31.084Z,1027.96
2016-09-03T08:41:31.089Z,1027.95
2016-09-03T08:42:31.095Z,1027.91
2016-09-03T08:43:31.103Z,1027.97
2016-09-03T08:44:31.109Z,1028.01
2016-09-03T08:45:31.114Z,1028.01
2016-09-03T08:46:31.123Z,1028.1
2016-09-03T08:47:31.134Z,1028.14
2016-09-03T08:48:31.134Z,1028.12
2016-09-03T08:49:31.141Z,1028.17
2016-09-03T08:50:31.147Z,1028.2
2016-09-03T08:51:31.153Z,1028.13
2016-09-03T08:52:31.159Z,1028.15
2016-09-03T08:53:31.167Z,1028.23
2016-09-03T08:54:31.174Z,1028.25
2016-09-03T08:55:31.183Z,1028.28
2016-09-03T08:56:31.184Z,1028.23
2016-09-03T08:57:31.189Z,1028.18
2016-09-03T08:58:31.197Z,1028.2
2016-09-03T08:59:31.206Z,1028.19
2016-09-03T09:00:31.209Z,1028.15
2016-09-03T09:01:31.213Z,1028.17
2016-09-03T09:02:31.218Z,1028.15
2016-09-03T09:03:31.230Z,1028.14
2016-09-03T09:04:31.237Z,1028.13
2016-09-03T09:05:33.288Z,1028.13
2016-09-03T09:06:31.241Z,1028.1
2016-09-03T09:07:32.633Z,1028.11
2016-09-03T09:08:32.535Z,1028.13
2016-09-03T09:09:31.259Z,1028.07
2016-09-03T09:10:31.271Z,1028.03
2016-09-03T09:11:31.276Z,1028.03
2016-09-03T09:12:31.283Z,1028.02
2016-09-03T09:13:31.281Z,1028
2016-09-03T09:14:31.294Z,1027.98
2016-09-03T09:15:31.293Z,1028.03
2016-09-03T09:16:31.301Z,1028.07
2016-09-03T09:17:31.308Z,1028.07
2016-09-03T09:18:31.318Z,1028.08
2016-09-03T09:19:31.316Z,1028.05
2016-09-03T09:20:31.321Z,1028.06
2016-09-03T09:21:31.327Z,1028.09
2016-09-03T09:22:31.339Z,1028.06
2016-09-03T09:23:31.789Z,1028.06
2016-09-03T09:24:31.349Z,1028.15
2016-09-03T09:25:31.350Z,1028.11
2016-09-03T09:26:31.356Z,1028.15
2016-09-03T09:27:31.367Z,1028.11
2016-09-03T09:28:31.622Z,1028.08
2016-09-03T09:29:31.374Z,1028.03
2016-09-03T09:30:31.378Z,1027.98
2016-09-03T09:31:31.390Z,1027.92
2016-09-03T09:32:31.394Z,1027.97
2016-09-03T09:33:31.995Z,1027.92
2016-09-03T09:35:31.411Z,1027.9
2016-09-03T09:36:31.427Z,1027.83
2016-09-03T09:37:31.417Z,1027.72
2016-09-03T09:38:31.425Z,1027.7
2016-09-03T09:39:31.432Z,1027.67
2016-09-03T09:40:31.434Z,1027.69
2016-09-03T09:41:31.441Z,1027.61
2016-09-03T09:42:31.444Z,1027.64
2016-09-03T09:43:31.451Z,1027.62
2016-09-03T09:44:31.457Z,1027.64
2016-09-03T09:45:31.465Z,1027.64
2016-09-03T09:46:31.467Z,1027.67
2016-09-03T09:47:31.480Z,1027.66
2016-09-03T09:48:31.482Z,1027.65
2016-09-03T09:49:31.491Z,1027.66
2016-09-03T09:50:31.490Z,1027.74
2016-09-03T09:51:31.496Z,1027.76
2016-09-03T09:52:31.504Z,1027.73
2016-09-03T09:53:31.507Z,1027.75
2016-09-03T09:54:31.520Z,1027.69
2016-09-03T09:55:31.522Z,1027.68
2016-09-03T09:56:31.527Z,1027.69
2016-09-03T09:57:31.532Z,1027.68
2016-09-03T09:58:31.543Z,1027.62
2016-09-03T09:59:31.549Z,1027.53
2016-09-03T10:00:31.551Z,1027.51
2016-09-03T10:01:31.553Z,1027.51
2016-09-03T10:02:31.560Z,1027.52
2016-09-03T10:03:31.572Z,1027.43
2016-09-03T10:04:31.571Z,1027.51
2016-09-03T10:05:31.578Z,1027.55
2016-09-03T10:06:31.590Z,1027.55
2016-09-03T10:07:31.588Z,1027.53
2016-09-03T10:08:31.600Z,1027.53
2016-09-03T10:09:31.603Z,1027.45
2016-09-03T10:10:31.606Z,1027.46
2016-09-03T10:11:31.612Z,1027.43
2016-09-03T10:12:31.621Z,1027.39
2016-09-03T10:13:31.627Z,1027.45
2016-09-03T10:14:31.630Z,1027.39
2016-09-03T10:15:31.636Z,1027.38
2016-09-03T10:16:31.644Z,1027.4
2016-09-03T10:17:31.654Z,1027.32
2016-09-03T10:18:31.657Z,1027.34
2016-09-03T10:19:31.664Z,1027.37
2016-09-03T10:20:31.667Z,1027.36
2016-09-03T10:21:31.707Z,1027.35
2016-09-03T10:22:31.676Z,1027.35
2016-09-03T10:23:31.683Z,1027.23
2016-09-03T10:24:31.689Z,1027.3
2016-09-03T10:25:32.364Z,1027.28
2016-09-03T10:26:32.663Z,1027.26
2016-09-03T10:27:31.707Z,1027.19
2016-09-03T10:28:31.717Z,1027.23
2016-09-03T10:29:31.721Z,1027.18
2016-09-03T10:30:31.723Z,1027.21
2016-09-03T10:31:31.730Z,1027.29
2016-09-03T10:32:31.738Z,1027.33
2016-09-03T10:33:31.740Z,1027.41
2016-09-03T10:34:31.750Z,1027.48
2016-09-03T10:35:31.760Z,1027.48
2016-09-03T10:36:31.759Z,1027.55
2016-09-03T10:37:31.764Z,1027.52
2016-09-03T10:38:31.777Z,1027.54
2016-09-03T10:39:31.777Z,1027.59
2016-09-03T10:40:31.785Z,1027.64
2016-09-03T10:41:32.137Z,1027.59
2016-09-03T10:42:31.995Z,1027.67
2016-09-03T10:43:32.651Z,1027.62
2016-09-03T10:44:31.805Z,1027.73
2016-09-03T10:45:31.811Z,1027.84
2016-09-03T10:46:31.816Z,1027.86
2016-09-03T10:47:31.821Z,1027.83
2016-09-03T10:48:31.877Z,1027.85
2016-09-03T10:49:31.833Z,1027.75
2016-09-03T10:50:31.838Z,1027.78
2016-09-03T10:51:31.850Z,1027.84
2016-09-03T10:52:31.848Z,1027.9
2016-09-03T10:53:32.106Z,1027.95
2016-09-03T10:54:31.859Z,1027.92
2016-09-03T10:55:32.370Z,1028.05
2016-09-03T10:56:31.870Z,1027.94
2016-09-03T10:57:31.877Z,1027.99
2016-09-03T10:58:31.880Z,1027.97
2016-09-03T10:59:31.886Z,1028
2016-09-03T11:00:31.900Z,1028.06
2016-09-03T11:01:31.897Z,1028.1
2016-09-03T11:02:31.900Z,1028.06
2016-09-03T11:03:31.904Z,1028.13
2016-09-03T11:04:31.910Z,1028.16
2016-09-03T11:05:31.915Z,1028.15
2016-09-03T11:06:31.918Z,1028.16
2016-09-03T11:07:31.931Z,1028.22
2016-09-03T11:08:31.932Z,1028.26
2016-09-03T11:09:31.936Z,1028.25
2016-09-03T11:10:31.941Z,1028.32
2016-09-03T11:11:31.943Z,1028.35
2016-09-03T11:12:31.948Z,1028.39
2016-09-03T11:13:31.953Z,1028.46
2016-09-03T11:14:31.963Z,1028.48
2016-09-03T11:15:31.963Z,1028.58
2016-09-03T11:16:31.972Z,1028.53
2016-09-03T11:17:31.972Z,1028.53
2016-09-03T11:18:31.981Z,1028.53
2016-09-03T11:19:31.981Z,1028.57
2016-09-03T11:20:31.983Z,1028.58
2016-09-03T11:21:31.989Z,1028.6
2016-09-03T11:22:31.991Z,1028.64
2016-09-03T11:23:31.996Z,1028.68
2016-09-03T11:24:32.000Z,1028.67
2016-09-03T11:25:32.003Z,1028.66
2016-09-03T11:26:32.009Z,1028.64
2016-09-03T11:27:32.015Z,1028.59
2016-09-03T11:28:32.020Z,1028.65
2016-09-03T11:29:32.026Z,1028.64
2016-09-03T11:30:32.024Z,1028.65
2016-09-03T11:31:32.028Z,1028.62
2016-09-03T11:32:32.032Z,1028.63
2016-09-03T11:33:32.036Z,1028.62
2016-09-03T11:34:33.200Z,1028.69
2016-09-03T11:35:32.044Z,1028.68
2016-09-03T11:36:32.048Z,1028.72
2016-09-03T11:37:32.053Z,1028.64
2016-09-03T11:38:32.055Z,1028.67
2016-09-03T11:39:32.060Z,1028.61
2016-09-03T11:40:32.064Z,1028.6
2016-09-03T11:41:32.067Z,1028.69
2016-09-03T11:42:32.078Z,1028.65
2016-09-03T11:43:32.602Z,1028.61
2016-09-03T11:44:33.052Z,1028.61
2016-09-03T11:45:32.089Z,1028.54
2016-09-03T11:46:32.088Z,1028.59
2016-09-03T11:47:32.091Z,1028.55
2016-09-03T11:48:32.100Z,1028.55
2016-09-03T11:49:32.104Z,1028.52
2016-09-03T11:50:32.101Z,1028.57
2016-09-03T11:51:32.110Z,1028.59
2016-09-03T11:52:32.108Z,1028.57
2016-09-03T11:53:32.119Z,1028.53
2016-09-03T11:54:32.117Z,1028.49
2016-09-03T11:55:32.126Z,1028.44
2016-09-03T11:56:32.122Z,1028.44
2016-09-03T11:57:32.132Z,1028.5
2016-09-03T11:58:32.129Z,1028.46
2016-09-03T11:59:33.184Z,1028.47
2016-09-03T12:00:32.338Z,1028.63
2016-09-03T12:01:32.998Z,1028.56
2016-09-03T12:02:32.146Z,1028.59
2016-09-03T12:03:32.149Z,1028.61
2016-09-03T12:04:32.171Z,1028.52
2016-09-03T12:05:32.168Z,1028.49
2016-09-03T12:06:32.159Z,1028.48
2016-09-03T12:07:32.164Z,1028.45
2016-09-03T12:08:32.166Z,1028.5
2016-09-03T12:09:32.169Z,1028.44
2016-09-03T12:10:32.174Z,1028.4
2016-09-03T12:11:32.785Z,1028.37
2016-09-03T12:12:32.438Z,1028.38
2016-09-03T12:13:32.185Z,1028.28
2016-09-03T12:14:32.191Z,1028.29
2016-09-03T12:15:32.193Z,1028.2
2016-09-03T12:16:32.196Z,1028.17
2016-09-03T12:17:32.202Z,1028.18
2016-09-03T12:18:32.210Z,1028.1
2016-09-03T12:19:32.208Z,1028.06